createdAt,value
2022-10-04T00:01:53.165Z,12.50
2022-10-04T00:04:40.212Z,10.70
2022-10-04T00:07:18.673Z,10.30
2022-10-04T00:09:55.708Z,9.40
2022-10-04T00:12:47.332Z,11.20
2022-10-04T00:15:28.818Z,9.80
2022-10-04T00:18:06.394Z,9.20
2022-10-04T00:20:59.061Z,13.80
2022-10-04T00:23:47.583Z,10.50
2022-10-04T00:26:35.961Z,7.60
2022-10-04T00:29:33.833Z,13.10
2022-10-04T00:32:11.425Z,8.70
2022-10-04T00:34:52.409Z,10.80
2022-10-04T00:37:23.737Z,8.40
2022-10-04T00:40:01.240Z,8.50
2022-10-04T00:42:43.245Z,9.50
2022-10-04T00:45:12.360Z,11.60
2022-10-04T00:47:47.272Z,8.00
2022-10-04T00:50:59.270Z,12.20
2022-10-04T00:53:43.111Z,9.30
2022-10-04T00:56:25.927Z,8.40
2022-10-04T00:59:00.042Z,10.00
2022-10-04T01:01:29.855Z,8.50
2022-10-04T01:04:01.117Z,8.90
2022-10-04T01:06:30.809Z,9.30
2022-10-04T01:09:08.713Z,8.20
2022-10-04T01:11:45.594Z,7.80
2022-10-04T01:14:52.164Z,10.20
2022-10-04T01:17:20.750Z,9.60
2022-10-04T01:19:54.616Z,7.60
2022-10-04T01:22:51.261Z,13.20
2022-10-04T01:26:23.678Z,9.60
2022-10-04T01:28:53.698Z,10.10
2022-10-04T01:31:23.420Z,8.20
2022-10-04T01:33:52.405Z,7.70
2022-10-04T01:36:21.392Z,8.80
2022-10-04T01:38:51.154Z,8.50
2022-10-04T01:41:47.319Z,9.40
2022-10-04T01:44:40.396Z,9.00
2022-10-04T01:47:14.604Z,8.70
2022-10-04T01:49:47.185Z,6.30
2022-10-04T01:52:24.576Z,6.90
2022-10-04T01:55:24.921Z,11.10
2022-10-04T01:58:08.744Z,11.90
2022-10-04T02:00:46.179Z,10.30
2022-10-04T02:03:29.988Z,11.50
2022-10-04T02:06:03.915Z,14.90
2022-10-04T02:08:37.692Z,10.20
2022-10-04T02:11:07.550Z,7.10
2022-10-04T02:13:41.105Z,12.40
2022-10-04T02:16:12.408Z,9.20
2022-10-04T02:18:45.752Z,9.80
2022-10-04T02:21:16.539Z,14.80
2022-10-04T02:23:47.343Z,13.60
2022-10-04T02:26:16.106Z,9.50
2022-10-04T02:28:44.689Z,14.30
2022-10-04T02:31:32.366Z,10.50
2022-10-04T02:34:01.410Z,10.10
2022-10-04T02:36:30.506Z,12.00
2022-10-04T02:39:21.792Z,7.80
2022-10-04T02:42:04.030Z,10.40
2022-10-04T02:44:53.370Z,10.90
2022-10-04T02:47:29.584Z,8.30
2022-10-04T02:50:18.525Z,12.20
2022-10-04T02:52:53.468Z,11.80
2022-10-04T02:55:28.247Z,16.50
2022-10-04T02:57:59.024Z,8.70
2022-10-04T03:00:31.180Z,12.40
2022-10-04T03:03:39.608Z,10.30
2022-10-04T03:06:16.020Z,11.90
2022-10-04T03:08:51.682Z,11.10
2022-10-04T03:11:24.745Z,12.10
2022-10-04T03:13:57.590Z,11.40
2022-10-04T03:16:26.800Z,13.10
2022-10-04T03:18:57.883Z,9.70
2022-10-04T03:21:27.752Z,11.80
2022-10-04T03:23:56.950Z,12.20
2022-10-04T03:26:47.243Z,10.90
2022-10-04T03:29:18.386Z,10.80
2022-10-04T03:31:51.013Z,11.20
2022-10-04T03:34:34.521Z,11.20
2022-10-04T03:37:16.621Z,11.90
2022-10-04T03:39:52.471Z,10.00
2022-10-04T03:42:36.297Z,13.70
2022-10-04T03:45:12.663Z,15.20
2022-10-04T03:47:45.507Z,13.90
2022-10-04T03:50:13.926Z,11.50
2022-10-04T03:52:51.628Z,10.60
2022-10-04T03:55:20.959Z,9.10
2022-10-04T03:57:49.844Z,10.60
2022-10-04T04:00:19.855Z,13.40
2022-10-04T04:03:05.519Z,10.40
2022-10-04T04:05:51.300Z,14.10
2022-10-04T04:08:42.959Z,11.40
2022-10-04T04:11:22.980Z,14.80
2022-10-04T04:14:07.948Z,12.50
2022-10-04T04:16:38.485Z,12.00
2022-10-04T04:19:16.994Z,11.80
2022-10-04T04:21:47.043Z,10.30
2022-10-04T04:24:26.295Z,10.90
2022-10-04T04:27:03.404Z,11.60
2022-10-04T04:29:48.406Z,12.20
2022-10-04T04:32:25.478Z,14.40
2022-10-04T04:35:10.385Z,9.70
2022-10-04T04:37:39.438Z,9.40
2022-10-04T04:40:25.737Z,8.30
2022-10-04T04:42:59.415Z,11.90
2022-10-04T04:45:31.415Z,12.10
2022-10-04T04:48:03.823Z,11.00
2022-10-04T04:50:36.916Z,11.30
2022-10-04T04:53:16.516Z,8.40
2022-10-04T04:56:03.409Z,13.40
2022-10-04T04:58:46.867Z,10.00
2022-10-04T05:01:33.522Z,10.40
2022-10-04T05:04:14.128Z,10.30
2022-10-04T05:07:06.608Z,10.20
2022-10-04T05:09:39.148Z,10.40
2022-10-04T05:12:18.385Z,8.70
2022-10-04T05:14:54.442Z,11.20
2022-10-04T05:17:33.983Z,11.20
2022-10-04T05:20:03.935Z,8.60
2022-10-04T05:22:33.914Z,14.70
2022-10-04T05:25:13.563Z,12.30
2022-10-04T05:27:45.162Z,7.50
2022-10-04T05:30:31.525Z,11.00
2022-10-04T05:33:45.666Z,13.10
2022-10-04T05:36:32.275Z,10.40
2022-10-04T05:39:39.974Z,12.80
2022-10-04T05:42:51.669Z,11.80
2022-10-04T05:45:26.194Z,13.00
2022-10-04T05:48:01.224Z,9.40
2022-10-04T05:50:44.157Z,8.90
2022-10-04T05:53:33.719Z,9.50
2022-10-04T05:56:30.572Z,11.00
2022-10-04T05:59:39.905Z,15.00
2022-10-04T06:02:32.204Z,12.20
2022-10-04T06:05:16.087Z,14.00
2022-10-04T06:08:09.658Z,12.10
2022-10-04T06:11:34.663Z,10.00
2022-10-04T06:14:48.507Z,11.60
2022-10-04T06:17:29.797Z,13.20
2022-10-04T06:20:25.920Z,10.10
2022-10-04T06:23:14.521Z,10.10
2022-10-04T06:26:02.105Z,15.00
2022-10-04T06:28:53.931Z,9.20
2022-10-04T06:31:24.566Z,11.00
2022-10-04T06:34:01.952Z,9.50
2022-10-04T06:37:06.070Z,13.20
2022-10-04T06:39:56.568Z,10.50
2022-10-04T06:43:12.360Z,10.80
2022-10-04T06:46:38.149Z,7.30
2022-10-04T06:49:34.517Z,10.80
2022-10-04T06:52:44.061Z,10.40
2022-10-04T06:55:38.246Z,11.70
2022-10-04T06:58:34.070Z,14.60
2022-10-04T07:01:31.139Z,10.30
2022-10-04T07:04:22.130Z,10.10
2022-10-04T07:07:27.681Z,11.50
2022-10-04T07:10:33.442Z,9.40
2022-10-04T07:13:37.859Z,11.80
2022-10-04T07:16:33.475Z,8.20
2022-10-04T07:19:40.358Z,9.20
2022-10-04T07:22:10.475Z,11.90
2022-10-04T07:25:00.461Z,11.40
2022-10-04T07:27:35.190Z,11.00
2022-10-04T07:30:11.757Z,7.30
2022-10-04T07:32:46.719Z,11.30
2022-10-04T07:35:35.653Z,8.20
2022-10-04T07:38:18.065Z,9.50
2022-10-04T07:41:11.222Z,7.10
2022-10-04T07:43:57.520Z,9.80
2022-10-04T07:47:00.614Z,10.50
2022-10-04T07:49:29.403Z,8.80
2022-10-04T07:52:30.037Z,7.80
2022-10-04T07:56:02.008Z,9.50
2022-10-04T07:59:04.691Z,8.70
2022-10-04T08:02:12.281Z,10.50
2022-10-04T08:05:24.803Z,9.50
2022-10-04T08:08:18.684Z,11.70
2022-10-04T08:10:58.431Z,7.90
2022-10-04T08:13:51.688Z,9.90
2022-10-04T08:16:50.382Z,8.30
2022-10-04T08:20:01.354Z,7.50
2022-10-04T08:22:51.032Z,9.50
2022-10-04T08:25:33.571Z,11.10
2022-10-04T08:28:48.411Z,9.50
2022-10-04T08:31:21.733Z,10.20
2022-10-04T08:34:08.517Z,11.80
2022-10-04T08:37:13.659Z,11.30
2022-10-04T08:40:12.815Z,8.00
2022-10-04T08:43:39.299Z,8.00
2022-10-04T08:46:23.541Z,9.00
2022-10-04T08:49:33.606Z,8.10
2022-10-04T08:52:37.622Z,9.30
2022-10-04T08:55:40.099Z,6.00
2022-10-04T08:58:16.369Z,11.90
2022-10-04T09:00:53.548Z,13.20
2022-10-04T09:03:35.751Z,9.60
2022-10-04T09:06:28.606Z,9.60
2022-10-04T09:09:47.675Z,10.90
2022-10-04T09:12:21.887Z,11.10
2022-10-04T09:15:21.294Z,12.30
2022-10-04T09:18:18.242Z,11.00
2022-10-04T09:21:04.748Z,6.60
2022-10-04T09:23:37.534Z,16.60
2022-10-04T09:26:45.586Z,8.60
2022-10-04T09:29:47.410Z,10.60
2022-10-04T09:32:28.089Z,10.40
2022-10-04T09:35:24.612Z,10.30
2022-10-04T09:38:18.495Z,10.90
2022-10-04T09:41:53.262Z,6.60
2022-10-04T09:44:52.835Z,9.90
2022-10-04T09:47:44.064Z,14.60
2022-10-04T09:50:43.358Z,19.50
2022-10-04T09:54:01.070Z,14.50
2022-10-04T09:56:38.170Z,13.60
2022-10-04T09:59:44.337Z,9.50
2022-10-04T10:03:02.829Z,15.30
2022-10-04T10:06:03.629Z,17.10
2022-10-04T10:08:53.405Z,14.90
2022-10-04T10:12:13.087Z,12.90
2022-10-04T10:15:40.509Z,14.80
2022-10-04T10:19:01.360Z,13.10
2022-10-04T10:22:00.462Z,14.90
2022-10-04T10:24:58.211Z,11.80
2022-10-04T10:27:55.117Z,11.30
2022-10-04T10:30:31.444Z,9.60
2022-10-04T10:33:43.958Z,10.50
2022-10-04T10:36:39.877Z,9.70
2022-10-04T10:40:12.564Z,14.40
2022-10-04T10:42:43.838Z,17.80
2022-10-04T10:45:35.434Z,10.00
2022-10-04T10:48:54.809Z,15.40
2022-10-04T10:51:59.949Z,17.10
2022-10-04T10:55:01.815Z,15.50
2022-10-04T10:57:58.352Z,10.60
2022-10-04T11:00:51.716Z,16.50
2022-10-04T11:03:41.011Z,11.30
2022-10-04T11:06:46.744Z,10.00
2022-10-04T11:09:43.383Z,8.20
2022-10-04T11:12:43.198Z,12.50
2022-10-04T11:15:43.458Z,9.60
2022-10-04T11:18:39.764Z,8.80
2022-10-04T11:21:32.917Z,9.20
2022-10-04T11:24:35.807Z,14.40
2022-10-04T11:27:28.766Z,9.20
2022-10-04T11:30:26.748Z,10.00
2022-10-04T11:33:41.401Z,9.10
2022-10-04T11:36:18.685Z,8.80
2022-10-04T11:39:24.133Z,8.70
2022-10-04T11:42:27.024Z,11.20
2022-10-04T11:45:04.719Z,9.20
2022-10-04T11:48:11.711Z,9.10
2022-10-04T11:51:30.157Z,6.80
2022-10-04T11:54:31.201Z,7.40
2022-10-04T11:57:44.024Z,7.80
2022-10-04T12:00:21.528Z,9.30
2022-10-04T12:03:15.954Z,8.00
2022-10-04T12:06:10.804Z,10.20
2022-10-04T12:08:54.541Z,8.60
2022-10-04T12:11:53.744Z,9.30
2022-10-04T12:14:25.093Z,9.20
2022-10-04T12:17:38.630Z,7.90
2022-10-04T12:20:58.415Z,8.40
2022-10-04T12:24:10.109Z,6.20
2022-10-04T12:26:50.897Z,5.50
2022-10-04T12:29:31.254Z,5.40
2022-10-04T12:32:40.800Z,5.70
2022-10-04T12:35:14.951Z,8.90
2022-10-04T12:38:06.725Z,7.00
2022-10-04T12:41:00.400Z,7.40
2022-10-04T12:44:01.441Z,9.00
2022-10-04T12:47:06.171Z,11.50
2022-10-04T12:49:45.923Z,10.00
2022-10-04T12:52:24.230Z,5.70
2022-10-04T12:55:09.924Z,6.70
2022-10-04T12:57:58.261Z,9.20
2022-10-04T13:00:33.832Z,5.80
2022-10-04T13:03:14.374Z,6.30
2022-10-04T13:06:24.224Z,9.90
2022-10-04T13:09:26.088Z,8.00
2022-10-04T13:12:16.073Z,9.30
2022-10-04T13:15:19.585Z,9.30
2022-10-04T13:17:50.926Z,14.70
2022-10-04T13:20:52.176Z,8.90
2022-10-04T13:23:38.575Z,7.00
2022-10-04T13:26:23.748Z,9.00
2022-10-04T13:29:12.299Z,8.20
2022-10-04T13:32:16.257Z,7.70
2022-10-04T13:35:19.644Z,9.80
2022-10-04T13:38:04.492Z,7.80
2022-10-04T13:40:56.412Z,7.60
2022-10-04T13:44:01.754Z,7.10
2022-10-04T13:46:45.492Z,8.00
2022-10-04T13:49:24.327Z,9.50
2022-10-04T13:52:51.683Z,8.10
2022-10-04T13:55:57.641Z,6.30
2022-10-04T13:59:07.689Z,9.50
2022-10-04T14:03:17.086Z,13.50
2022-10-04T14:06:12.557Z,10.10
2022-10-04T14:09:02.034Z,9.10
2022-10-04T14:12:16.386Z,8.30
2022-10-04T14:15:29.315Z,12.50
2022-10-04T14:18:28.511Z,8.00
2022-10-04T14:21:34.794Z,9.70
2022-10-04T14:24:37.361Z,10.10
2022-10-04T14:27:53.283Z,7.90
2022-10-04T14:30:50.920Z,10.00
2022-10-04T14:34:22.380Z,9.30
2022-10-04T14:37:38.989Z,7.00
2022-10-04T14:41:07.685Z,7.30
2022-10-04T14:44:03.503Z,6.60
2022-10-04T14:47:02.148Z,6.40
2022-10-04T14:49:31.391Z,11.40
2022-10-04T14:52:18.514Z,12.20
2022-10-04T14:54:54.567Z,9.40
2022-10-04T14:57:56.736Z,6.70
2022-10-04T15:00:56.101Z,9.00
2022-10-04T15:03:46.337Z,9.80
2022-10-04T15:07:17.827Z,10.50
2022-10-04T15:10:24.473Z,7.50
2022-10-04T15:13:18.960Z,7.90
2022-10-04T15:15:55.268Z,11.80
2022-10-04T15:18:54.425Z,8.30
2022-10-04T15:21:55.805Z,8.20
2022-10-04T15:24:42.792Z,11.20
2022-10-04T15:27:35.748Z,9.00
2022-10-04T15:30:21.637Z,10.20
2022-10-04T15:33:33.781Z,8.50
2022-10-04T15:36:02.228Z,7.10
2022-10-04T15:38:54.053Z,6.10
2022-10-04T15:41:30.419Z,8.90
2022-10-04T15:44:12.214Z,7.20
2022-10-04T15:47:08.556Z,7.20
2022-10-04T15:50:22.599Z,8.70
2022-10-04T15:53:25.694Z,12.10
2022-10-04T15:55:58.370Z,15.50
2022-10-04T15:58:49.358Z,17.90
2022-10-04T16:01:56.994Z,22.30
2022-10-04T16:05:36.735Z,21.60
2022-10-04T16:08:13.816Z,22.20
2022-10-04T16:11:15.679Z,21.40
2022-10-04T16:13:51.735Z,22.00
2022-10-04T16:16:28.927Z,19.40
2022-10-04T16:19:37.956Z,15.90
2022-10-04T16:22:28.451Z,15.30
2022-10-04T16:25:24.788Z,18.00
2022-10-04T16:28:05.925Z,16.10
2022-10-04T16:31:28.984Z,18.10
2022-10-04T16:34:09.997Z,15.50
2022-10-04T16:36:55.373Z,12.50
2022-10-04T16:40:06.359Z,15.30
2022-10-04T16:42:50.297Z,14.20
2022-10-04T16:45:34.498Z,15.80
2022-10-04T16:48:37.926Z,22.10
2022-10-04T16:51:18.309Z,39.30
2022-10-04T16:54:21.091Z,30.50
2022-10-04T16:56:58.382Z,31.60
2022-10-04T16:59:39.389Z,36.40
2022-10-04T17:02:57.602Z,38.40
2022-10-04T17:06:06.331Z,37.10
2022-10-04T17:09:36.453Z,24.90
2022-10-04T17:12:24.697Z,15.80
2022-10-04T17:15:28.302Z,16.10
2022-10-04T17:18:13.680Z,15.30
2022-10-04T17:20:42.163Z,13.60
2022-10-04T17:23:42.388Z,13.40
2022-10-04T17:26:56.033Z,16.50
2022-10-04T17:30:02.501Z,18.80
2022-10-04T17:32:50.032Z,19.00
2022-10-04T17:36:08.582Z,21.80
2022-10-04T17:39:17.103Z,17.30
2022-10-04T17:42:36.068Z,22.00
2022-10-04T17:45:26.576Z,23.40
2022-10-04T17:48:49.320Z,23.50
2022-10-04T17:51:39.714Z,27.20
2022-10-04T17:55:17.726Z,28.60
2022-10-04T17:58:40.174Z,27.60
2022-10-04T18:01:46.627Z,29.30
2022-10-04T18:04:30.740Z,27.80
2022-10-04T18:07:23.486Z,28.00
2022-10-04T18:10:02.776Z,28.00
2022-10-04T18:12:52.659Z,30.00
2022-10-04T18:15:29.249Z,28.90
2022-10-04T18:18:16.562Z,25.00
2022-10-04T18:20:54.481Z,24.50
2022-10-04T18:23:29.024Z,21.70
2022-10-04T18:26:12.212Z,19.60
2022-10-04T18:28:41.302Z,22.60
2022-10-04T18:31:24.525Z,24.60
2022-10-04T18:33:54.278Z,27.00
2022-10-04T18:36:32.964Z,28.50
2022-10-04T18:39:14.469Z,22.20
2022-10-04T18:41:54.499Z,32.50
2022-10-04T18:44:47.048Z,28.00
2022-10-04T18:47:30.478Z,24.20
2022-10-04T18:50:05.722Z,18.80
2022-10-04T18:52:46.177Z,23.30
2022-10-04T18:55:41.077Z,25.90
2022-10-04T18:58:43.557Z,19.60
2022-10-04T19:01:35.620Z,17.40
2022-10-04T19:04:17.200Z,15.60
2022-10-04T19:06:48.463Z,13.30
2022-10-04T19:09:34.211Z,16.50
2022-10-04T19:12:15.291Z,15.30
2022-10-04T19:15:09.165Z,16.90
2022-10-04T19:18:21.784Z,21.10
2022-10-04T19:21:39.318Z,22.30
2022-10-04T19:24:26.124Z,21.00
2022-10-04T19:27:36.901Z,21.30
2022-10-04T19:30:27.677Z,21.60
2022-10-04T19:33:31.512Z,21.30
2022-10-04T19:36:39.519Z,23.70
2022-10-04T19:39:17.423Z,22.40
2022-10-04T19:42:21.619Z,20.80
2022-10-04T19:45:21.338Z,22.30
2022-10-04T19:47:59.809Z,23.10
2022-10-04T19:50:38.080Z,22.70
2022-10-04T19:53:12.757Z,20.50
2022-10-04T19:55:58.942Z,23.40
2022-10-04T19:58:38.550Z,21.20
2022-10-04T20:01:16.898Z,21.10
2022-10-04T20:03:46.058Z,22.80
2022-10-04T20:06:26.416Z,21.00
2022-10-04T20:09:23.248Z,20.70
2022-10-04T20:11:53.562Z,21.50
2022-10-04T20:14:23.603Z,22.50
2022-10-04T20:16:55.015Z,25.40
2022-10-04T20:19:29.480Z,21.60
2022-10-04T20:22:13.110Z,23.30
2022-10-04T20:24:41.595Z,23.10
2022-10-04T20:27:25.436Z,22.60
2022-10-04T20:29:58.012Z,22.60
2022-10-04T20:32:31.137Z,21.40
2022-10-04T20:35:10.619Z,21.20
2022-10-04T20:37:45.163Z,18.30
2022-10-04T20:40:22.451Z,18.10
2022-10-04T20:43:15.762Z,14.20
2022-10-04T20:45:55.175Z,16.30
2022-10-04T20:48:27.365Z,13.20
2022-10-04T20:50:56.726Z,12.60
2022-10-04T20:53:31.767Z,12.50
2022-10-04T20:56:33.769Z,14.50
2022-10-04T20:59:04.835Z,11.60
2022-10-04T21:01:36.475Z,15.00
2022-10-04T21:04:33.576Z,11.40
2022-10-04T21:07:08.917Z,13.10
2022-10-04T21:09:39.966Z,13.60
2022-10-04T21:12:34.863Z,13.90
2022-10-04T21:15:21.678Z,14.80
2022-10-04T21:18:00.804Z,13.50
2022-10-04T21:20:45.773Z,15.50
2022-10-04T21:23:30.452Z,20.40
2022-10-04T21:26:23.355Z,17.40
2022-10-04T21:28:59.745Z,14.80
2022-10-04T21:31:28.259Z,14.70
2022-10-04T21:33:56.818Z,12.80
2022-10-04T21:36:25.399Z,12.70
2022-10-04T21:38:54.599Z,16.80
2022-10-04T21:41:23.284Z,12.90
2022-10-04T21:43:51.767Z,12.60
2022-10-04T21:46:20.744Z,13.60
2022-10-04T21:48:49.862Z,14.70
2022-10-04T21:51:18.441Z,13.20
2022-10-04T21:53:47.439Z,13.40
2022-10-04T21:56:16.222Z,16.50
2022-10-04T21:58:44.703Z,18.00
2022-10-04T22:01:13.746Z,17.30
2022-10-04T22:03:42.894Z,14.90
2022-10-04T22:06:11.485Z,15.30
2022-10-04T22:08:40.371Z,14.60
2022-10-04T22:11:10.082Z,13.20
2022-10-04T22:13:39.382Z,12.20
2022-10-04T22:16:08.303Z,11.20
2022-10-04T22:18:36.852Z,13.60
2022-10-04T22:21:05.754Z,13.40
2022-10-04T22:23:40.583Z,11.20
2022-10-04T22:26:22.676Z,21.70
2022-10-04T22:28:54.342Z,23.70
2022-10-04T22:31:28.137Z,16.80
2022-10-04T22:33:56.929Z,15.10
2022-10-04T22:36:36.568Z,14.30
2022-10-04T22:39:05.128Z,13.40
2022-10-04T22:41:40.390Z,14.00
2022-10-04T22:44:37.338Z,13.70
2022-10-04T22:47:12.783Z,14.70
2022-10-04T22:49:48.231Z,13.10
2022-10-04T22:52:27.574Z,11.40
2022-10-04T22:55:00.516Z,12.80
2022-10-04T22:57:30.875Z,15.70
2022-10-04T22:59:59.368Z,12.50
2022-10-04T23:02:31.098Z,13.50
2022-10-04T23:05:10.614Z,11.50
2022-10-04T23:07:39.750Z,13.20
2022-10-04T23:10:09.403Z,14.80
2022-10-04T23:12:40.029Z,12.30
2022-10-04T23:15:16.138Z,13.60
2022-10-04T23:17:46.719Z,12.00
2022-10-04T23:20:20.777Z,10.30
2022-10-04T23:22:53.767Z,10.60
2022-10-04T23:25:29.934Z,12.70
2022-10-04T23:28:19.394Z,10.40
2022-10-04T23:31:20.911Z,12.80
2022-10-04T23:33:55.093Z,13.40
2022-10-04T23:36:24.286Z,12.40
2022-10-04T23:39:00.747Z,10.00
2022-10-04T23:41:29.448Z,11.00
2022-10-04T23:43:58.125Z,11.60
2022-10-04T23:46:26.610Z,10.10
2022-10-04T23:48:55.293Z,10.80
2022-10-04T23:51:23.982Z,12.20
2022-10-04T23:53:52.460Z,10.50
2022-10-04T23:56:27.150Z,13.80
2022-10-04T23:58:59.081Z,13.40
